< < Back
Terminal Aerodrome Forecast


Current Version              Previous Versions:   1  2  3  4  5  6  7  8  9  

Terminal Aerodrome Forecast

938
FTUS44 KBMX 061133
TAFMGM
TAF
KMGM 061133Z 0612/0712 28003KT P6SM BKN004
     FM061300 27005KT P6SM BKN015
     FM061700 27007KT P6SM BKN040
     FM070000 24005KT P6SM SCT250
     FM070600 00000KT P6SM SKC=

Latest METAR

475
SAUS80 KWBC 070000 CCA
MTRMGM
METAR KMGM 062353Z 24003KT 10SM CLR 29/22 A3010 RMK AO2 SLP189 T02940222
10317 20289 56011


USA.gov is the U.S. government's official web portal to all federal, state and local government web resources and services.